Time;durP1;ratioP1;P1;durP2;ratioP2;P2;SDS_P1;SDS_P2;PMS_P1;PMS_P2;Temp;Humidity;BMP_temperature;BMP_pressure;BME280_temperature;BME280_humidity;BME280_pressure;Samples;Min_cycle;Max_cycle;Signal;HPM_P1;HPM_P2
2021/12/02 00:00:06;;;;;;;8.95;1.77;;;3.40;99.90;;;;;;5067918;28;20531;-74
2021/12/02 00:02:32;;;;;;;9.73;1.75;;;3.30;99.90;;;;;;5051067;28;20064;-74
2021/12/02 00:04:58;;;;;;;12.95;1.80;;;3.70;99.90;;;;;;5068146;28;20044;-74
2021/12/02 00:07:23;;;;;;;7.40;1.90;;;3.50;99.90;;;;;;5051523;28;20112;-74
2021/12/02 00:09:50;;;;;;;7.95;1.60;;;3.90;99.90;;;;;;5068209;28;20072;-74
2021/12/02 00:12:15;;;;;;;10.30;1.60;;;3.40;99.90;;;;;;5067740;28;20086;-74
2021/12/02 00:14:46;;;;;;;9.35;1.80;;;3.60;99.90;;;;;;5068193;28;20048;-74
2021/12/02 00:17:21;;;;;;;12.32;2.20;;;;;;;;;;5051380;28;20092;-74
2021/12/02 00:22:34;;;;;;;11.13;1.75;;;3.30;99.90;;;;;;5050669;28;20068;-74
2021/12/02 00:25:03;;;;;;;11.00;2.17;;;3.60;99.90;;;;;;5066456;28;20118;-73
2021/12/02 00:27:29;;;;;;;9.15;2.45;;;3.40;99.90;;;;;;5070302;28;20044;-74
2021/12/02 00:29:57;;;;;;;15.77;2.22;;;3.40;99.90;;;;;;5070475;28;20084;-73
2021/12/02 00:32:28;;;;;;;7.45;1.90;;;3.40;99.90;;;;;;5070551;28;20048;-74
2021/12/02 00:34:55;;;;;;;11.10;1.88;;;3.50;99.90;;;;;;5070226;28;20079;-74
2021/12/02 00:37:22;;;;;;;11.13;2.03;;;2.50;99.90;;;;;;5070067;28;20044;-74
2021/12/02 00:39:48;;;;;;;8.02;2.00;;;;;;;;;;5070045;28;20136;-73
2021/12/02 00:42:14;;;;;;;10.82;2.13;;;3.50;99.90;;;;;;5068530;28;20060;-73
2021/12/02 00:44:40;;;;;;;10.75;2.00;;;3.30;99.90;;;;;;5069038;28;20040;-73
2021/12/02 00:47:08;;;;;;;11.43;1.90;;;3.20;99.90;;;;;;5068804;28;20052;-74
2021/12/02 00:49:34;;;;;;;8.07;1.85;;;3.20;99.90;;;;;;5069904;28;20050;-74
2021/12/02 00:52:01;;;;;;;12.30;2.35;;;3.30;99.90;;;;;;5069960;28;20568;-74
2021/12/02 00:54:30;;;;;;;9.23;1.88;;;3.20;99.90;;;;;;5069779;28;20072;-74
2021/12/02 00:56:55;;;;;;;9.68;1.90;;;3.50;99.90;;;;;;5073849;28;20107;-74
2021/12/02 00:59:22;;;;;;;12.68;2.30;;;4.10;99.90;;;;;;5073833;28;20565;-74
2021/12/02 01:01:51;;;;;;;9.07;2.22;;;3.30;99.90;;;;;;5073306;28;20045;-74
2021/12/02 01:04:25;;;;;;;12.93;1.75;;;3.30;99.90;;;;;;5073545;28;20048;-74
2021/12/02 01:06:52;;;;;;;10.07;1.60;;;4.10;99.90;;;;;;5073605;28;20048;-74
2021/12/02 01:09:19;;;;;;;9.73;1.90;;;3.00;99.90;;;;;;5072325;28;20055;-74
2021/12/02 01:11:44;;;;;;;11.32;2.05;;;2.50;99.90;;;;;;5073626;28;20048;-74
2021/12/02 01:14:14;;;;;;;10.13;1.60;;;3.10;99.90;;;;;;5073955;28;20044;-74
2021/12/02 01:16:42;;;;;;;10.52;2.05;;;;;;;;;;5073706;28;20249;-74
2021/12/02 01:19:11;;;;;;;7.95;1.45;;;3.10;99.90;;;;;;5072517;28;20036;-74
2021/12/02 01:21:40;;;;;;;10.45;2.08;;;3.00;99.90;;;;;;5072221;28;20087;-74
2021/12/02 01:24:09;;;;;;;10.23;1.88;;;2.90;99.90;;;;;;5073317;28;20048;-74
2021/12/02 01:26:35;;;;;;;8.80;2.35;;;2.90;99.90;;;;;;5073053;28;20072;-74
2021/12/02 01:29:02;;;;;;;7.18;1.95;;;2.80;99.90;;;;;;5073017;28;20472;-74
2021/12/02 01:31:31;;;;;;;8.55;1.90;;;1.90;99.90;;;;;;5072057;28;20040;-74
2021/12/02 01:34:01;;;;;;;13.88;1.90;;;2.70;99.90;;;;;;5073017;28;20052;-74
2021/12/02 01:36:36;;;;;;;11.68;2.08;;;3.30;99.90;;;;;;5073026;28;20059;-74
2021/12/02 01:39:04;;;;;;;9.60;1.90;;;3.20;99.90;;;;;;5072906;28;20138;-74
2021/12/02 01:41:35;;;;;;;8.80;2.00;;;2.10;99.90;;;;;;5070972;28;20053;-74
2021/12/02 01:44:03;;;;;;;11.45;2.10;;;3.00;99.90;;;;;;5073074;28;20049;-74
2021/12/02 01:46:32;;;;;;;7.28;1.75;;;3.50;99.90;;;;;;5072773;28;20045;-74
2021/12/02 01:49:04;;;;;;;7.05;1.85;;;;;;;;;;5071693;28;20392;-74
2021/12/02 01:51:36;;;;;;;13.25;1.95;;;2.70;99.90;;;;;;5072935;28;20052;-75
2021/12/02 01:54:08;;;;;;;6.63;1.70;;;2.50;99.90;;;;;;5072816;28;20496;-75
2021/12/02 01:56:49;;;;;;;9.43;1.80;;;2.60;99.90;;;;;;5073093;28;20040;-75
2021/12/02 01:59:28;;;;;;;9.68;1.67;;;2.60;99.90;;;;;;5073033;28;20048;-75
2021/12/02 02:01:58;;;;;;;9.30;1.80;;;2.70;99.90;;;;;;5071766;28;20177;-75
2021/12/02 02:04:24;;;;;;;8.00;1.85;;;2.50;99.90;;;;;;5072623;28;20032;-75
2021/12/02 02:06:54;;;;;;;7.32;1.65;;;2.70;99.90;;;;;;5072169;28;20048;-75
2021/12/02 02:09:20;;;;;;;6.85;1.35;;;;;;;;;;5071796;28;20071;-74
2021/12/02 02:11:50;;;;;;;7.82;1.80;;;;;;;;;;5071483;28;20119;-75
2021/12/02 02:14:16;;;;;;;6.22;1.55;;;2.90;99.90;;;;;;5072485;28;20052;-75
2021/12/02 02:16:42;;;;;;;7.47;1.85;;;2.60;99.90;;;;;;5072538;28;20040;-74
2021/12/02 02:19:11;;;;;;;9.35;1.48;;;2.90;99.90;;;;;;5072069;28;20511;-74
2021/12/02 02:21:37;;;;;;;9.18;1.73;;;3.00;99.90;;;;;;5072212;28;20548;-74
2021/12/02 02:24:05;;;;;;;9.27;1.63;;;2.40;99.90;;;;;;5072479;28;20037;-74
2021/12/02 02:26:35;;;;;;;6.40;1.45;;;2.70;99.90;;;;;;5072300;28;20048;-74
2021/12/02 02:29:02;;;;;;;11.45;1.45;;;2.80;99.90;;;;;;5071262;28;20096;-74
2021/12/02 02:31:29;;;;;;;9.90;2.00;;;2.00;99.90;;;;;;5071875;28;20112;-74
2021/12/02 02:33:56;;;;;;;9.18;1.48;;;2.50;99.90;;;;;;5072141;28;20208;-75
2021/12/02 02:36:24;;;;;;;12.38;1.73;;;3.90;99.90;;;;;;5071987;28;20123;-74
2021/12/02 02:39:02;;;;;;;6.00;1.55;;;3.30;99.90;;;;;;5070813;28;20071;-73
2021/12/02 02:41:40;;;;;;;5.03;1.40;;;3.20;99.90;;;;;;5071002;28;20087;-73
2021/12/02 02:44:06;;;;;;;5.53;1.40;;;;;;;;;;5071658;28;20044;-73
2021/12/02 02:46:39;;;;;;;9.32;1.60;;;3.00;99.90;;;;;;5071846;28;20083;-73
2021/12/02 02:49:10;;;;;;;4.43;1.27;;;3.00;99.90;;;;;;5071483;28;20475;-73
2021/12/02 02:51:37;;;;;;;8.00;1.50;;;3.10;99.90;;;;;;5071192;28;20504;-73
2021/12/02 02:54:06;;;;;;;6.45;1.30;;;3.60;99.90;;;;;;5070923;28;20136;-73
2021/12/02 02:56:35;;;;;;;7.32;1.20;;;3.00;99.90;;;;;;5071076;28;20508;-73
2021/12/02 02:59:09;;;;;;;3.92;1.00;;;3.00;99.90;;;;;;5069704;28;20484;-73
2021/12/02 03:01:44;;;;;;;6.75;1.25;;;;;;;;;;5071144;28;20051;-73
2021/12/02 03:10:20;;;;;;;4.47;1.02;;;3.10;99.90;;;;;;5031953;28;20106;-73
2021/12/02 03:17:44;;;;;;;2.17;0.77;;;2.80;99.90;;;;;;5032056;28;20083;-73
2021/12/02 03:20:10;;;;;;;5.68;1.05;;;2.70;99.90;;;;;;5031475;28;20083;-73
2021/12/02 03:22:36;;;;;;;1.80;0.77;;;2.60;99.90;;;;;;5048361;28;20048;-74
2021/12/02 03:25:04;;;;;;;2.80;0.93;;;2.60;99.90;;;;;;5048335;28;20413;-74
2021/12/02 03:27:29;;;;;;;5.03;1.20;;;2.60;99.90;;;;;;5048430;28;20606;-73
2021/12/02 03:29:55;;;;;;;2.78;0.93;;;2.40;99.90;;;;;;5048390;28;20044;-73
2021/12/02 03:32:25;;;;;;;1.40;0.80;;;2.30;99.90;;;;;;5031907;28;20052;-73
2021/12/02 03:34:51;;;;;;;3.38;1.10;;;;;;;;;;5048403;28;20052;-73
2021/12/02 03:37:17;;;;;;;4.78;1.00;;;;;;;;;;5031728;28;20061;-73
2021/12/02 03:39:44;;;;;;;3.40;1.10;;;2.60;99.90;;;;;;5047751;28;20041;-73
2021/12/02 03:42:10;;;;;;;2.33;0.77;;;;;;;;;;5047818;28;20093;-73
2021/12/02 03:44:37;;;;;;;3.35;1.00;;;2.50;99.90;;;;;;5065136;28;20065;-73
2021/12/02 03:47:03;;;;;;;3.58;0.88;;;2.40;99.90;;;;;;5070263;28;20036;-73
2021/12/02 03:49:29;;;;;;;2.95;1.00;;;;;;;;;;5070506;28;20507;-73
2021/12/02 03:51:55;;;;;;;8.85;1.35;;;2.80;99.90;;;;;;5070459;28;20481;-73
2021/12/02 03:54:21;;;;;;;3.30;1.00;;;;;;;;;;5070440;28;20071;-73
2021/12/02 03:56:49;;;;;;;2.10;0.80;;;2.10;99.90;;;;;;5068961;28;20051;-65
2021/12/02 03:59:15;;;;;;;2.08;0.70;;;;;;;;;;5052272;28;20048;-65
2021/12/02 04:01:41;;;;;;;3.88;1.00;;;;;;;;;;5069010;28;20056;-65
2021/12/02 04:04:07;;;;;;;2.45;0.80;;;2.20;99.90;;;;;;5070423;28;20115;-65
2021/12/02 04:06:32;;;;;;;5.32;1.20;;;1.90;99.90;;;;;;5069318;28;20182;-65
2021/12/02 04:09:09;;;;;;;1.45;0.82;;;2.10;99.90;;;;;;5070656;28;20052;-65
2021/12/02 04:11:44;;;;;;;2.25;1.08;;;;;;;;;;5070500;28;20147;-65
2021/12/02 04:14:16;;;;;;;2.08;1.00;;;1.60;99.90;;;;;;5069296;28;20059;-65
2021/12/02 04:16:51;;;;;;;1.63;0.93;;;2.20;99.90;;;;;;5068873;28;20515;-65
2021/12/02 04:19:17;;;;;;;2.90;1.27;;;1.70;99.90;;;;;;5070472;28;20052;-65
2021/12/02 04:21:43;;;;;;;7.28;1.23;;;;;;;;;;5070023;28;20045;-65
2021/12/02 04:24:09;;;;;;;3.35;1.40;;;;;;;;;;5068567;28;20052;-65
2021/12/02 04:26:35;;;;;;;3.20;1.20;;;1.10;99.90;;;;;;5070173;28;20041;-65
2021/12/02 04:29:02;;;;;;;3.80;1.30;;;1.90;99.90;;;;;;5069889;28;20238;-65
2021/12/02 04:31:28;;;;;;;4.10;1.58;;;1.80;99.90;;;;;;5073355;28;20106;-65
2021/12/02 04:34:14;;;;;;;4.68;1.45;;;;;;;;;;5072629;28;20056;-66
2021/12/02 04:36:40;;;;;;;5.45;1.50;;;1.70;99.90;;;;;;5072798;28;20136;-65
2021/12/02 04:39:06;;;;;;;4.90;1.33;;;1.80;99.90;;;;;;5072594;28;20389;-65
2021/12/02 04:41:32;;;;;;;3.78;1.30;;;2.80;99.90;;;;;;5073535;28;20121;-65
2021/12/02 04:43:58;;;;;;;5.85;1.42;;;;;;;;;;5073828;28;20131;-65
2021/12/02 04:46:24;;;;;;;6.45;1.25;;;2.40;99.90;;;;;;5073819;28;20119;-65
2021/12/02 04:48:50;;;;;;;5.28;1.50;;;;;;;;;;5072451;28;20135;-65
2021/12/02 04:51:16;;;;;;;6.32;1.58;;;1.90;99.90;;;;;;5073707;28;20048;-65
2021/12/02 04:53:41;;;;;;;3.85;1.38;;;2.10;99.90;;;;;;5073983;28;20093;-65
2021/12/02 04:56:07;;;;;;;3.22;1.40;;;2.00;99.90;;;;;;5072251;28;20472;-65
2021/12/02 04:58:33;;;;;;;3.92;1.63;;;1.90;99.90;;;;;;5073758;28;20120;-65
2021/12/02 05:01:00;;;;;;;6.65;1.40;;;;;;;;;;5072256;28;20494;-65
2021/12/02 05:03:25;;;;;;;7.78;1.80;;;2.00;99.90;;;;;;5073536;28;20044;-65
2021/12/02 05:05:51;;;;;;;4.70;1.50;;;2.50;99.90;;;;;;5073520;28;20036;-65
2021/12/02 05:08:17;;;;;;;5.03;1.52;;;1.90;99.90;;;;;;5073249;28;20507;-65
2021/12/02 05:10:46;;;;;;;4.03;1.50;;;2.10;99.90;;;;;;5073249;28;20044;-65
2021/12/02 05:13:12;;;;;;;8.05;1.48;;;1.80;99.90;;;;;;5073499;28;20511;-65
2021/12/02 05:15:38;;;;;;;6.80;1.60;;;1.70;99.90;;;;;;5073119;28;20037;-65
2021/12/02 05:18:03;;;;;;;4.97;1.45;;;2.00;99.90;;;;;;5072970;28;20080;-65
2021/12/02 05:20:29;;;;;;;3.30;1.27;;;;;;;;;;5073344;28;20122;-65
2021/12/02 05:22:56;;;;;;;4.05;1.50;;;;;;;;;;5073243;28;20141;-65
2021/12/02 05:25:22;;;;;;;2.90;1.25;;;;;;;;;;5073358;28;20502;-65
2021/12/02 05:27:47;;;;;;;4.55;1.30;;;2.00;99.90;;;;;;5073357;28;20076;-65
2021/12/02 05:30:13;;;;;;;5.78;1.23;;;;;;;;;;5073232;28;20072;-65
2021/12/02 05:32:39;;;;;;;7.95;1.60;;;1.90;99.90;;;;;;5071582;28;20044;-65
2021/12/02 05:35:06;;;;;;;12.07;1.90;;;1.90;99.90;;;;;;5073439;28;20447;-65
2021/12/02 05:37:31;;;;;;;4.72;1.63;;;2.00;99.90;;;;;;5073316;28;20104;-65
2021/12/02 05:39:57;;;;;;;4.68;1.60;;;1.70;99.90;;;;;;5072924;28;20493;-65
2021/12/02 05:42:23;;;;;;;3.30;1.50;;;1.80;99.90;;;;;;5071972;28;20123;-65
2021/12/02 05:44:49;;;;;;;8.35;1.80;;;1.70;99.90;;;;;;5071486;28;20044;-65
2021/12/02 05:47:14;;;;;;;5.82;1.85;;;1.70;99.90;;;;;;5072440;28;20036;-65
2021/12/02 05:49:40;;;;;;;8.57;1.70;;;1.70;99.90;;;;;;5071086;28;20143;-65
2021/12/02 05:52:08;;;;;;;6.35;1.80;;;1.70;99.90;;;;;;5072475;28;20106;-65
2021/12/02 05:54:34;;;;;;;6.22;1.80;;;1.80;99.90;;;;;;5072533;28;20042;-65
2021/12/02 05:57:00;;;;;;;6.10;1.70;;;;;;;;;;5072679;28;20045;-73
2021/12/02 05:59:26;;;;;;;3.20;1.38;;;;;;;;;;5072718;28;20428;-74
2021/12/02 06:01:55;;;;;;;6.00;1.80;;;2.00;99.90;;;;;;5072783;28;20416;-74
2021/12/02 06:04:21;;;;;;;4.70;1.83;;;1.80;99.90;;;;;;5073103;28;20049;-73
2021/12/02 06:06:49;;;;;;;8.70;1.70;;;1.80;99.90;;;;;;5072824;28;20040;-73
2021/12/02 06:09:18;;;;;;;4.18;1.70;;;1.90;99.90;;;;;;5072823;28;20076;-73
2021/12/02 06:11:44;;;;;;;11.48;1.80;;;1.10;99.90;;;;;;5073141;28;20059;-73
2021/12/02 06:14:13;;;;;;;4.47;1.70;;;;;;;;;;5072876;28;20813;-73
2021/12/02 06:16:39;;;;;;;3.97;1.50;;;;;;;;;;5073088;28;20052;-73
2021/12/02 06:19:07;;;;;;;4.80;1.70;;;;;;;;;;5072702;28;20056;-73
2021/12/02 06:21:33;;;;;;;3.30;1.30;;;1.10;99.90;;;;;;5072477;28;20049;-73
2021/12/02 06:24:01;;;;;;;6.13;1.52;;;1.60;99.90;;;;;;5072327;28;20033;-73
2021/12/02 06:26:26;;;;;;;5.38;1.60;;;1.80;99.90;;;;;;5072196;28;20084;-65
2021/12/02 06:28:52;;;;;;;5.38;1.88;;;1.60;99.90;;;;;;5072137;28;20128;-64
2021/12/02 06:31:18;;;;;;;4.80;1.52;;;1.60;99.90;;;;;;5070793;28;20506;-64
2021/12/02 06:33:43;;;;;;;4.80;1.58;;;1.50;99.90;;;;;;5071857;28;20097;-65
2021/12/02 06:36:09;;;;;;;3.72;1.35;;;1.50;99.90;;;;;;5072022;28;20127;-64
2021/12/02 06:38:35;;;;;;;5.13;1.50;;;1.50;99.90;;;;;;5070405;28;20376;-64
2021/12/02 06:41:00;;;;;;;6.63;1.42;;;1.80;99.90;;;;;;5071401;28;20132;-64
2021/12/02 06:43:26;;;;;;;4.65;1.42;;;;;;;;;;5071553;28;20226;-64
2021/12/02 06:45:52;;;;;;;5.07;1.80;;;1.80;99.90;;;;;;5070582;28;20048;-64
2021/12/02 06:48:18;;;;;;;5.40;1.40;;;1.60;99.90;;;;;;5071578;28;20404;-64
2021/12/02 06:50:44;;;;;;;4.18;1.70;;;;;;;;;;5069031;28;20041;-64
2021/12/02 06:53:10;;;;;;;7.30;1.75;;;1.90;99.90;;;;;;5066474;28;20072;-64
2021/12/02 06:55:36;;;;;;;3.10;1.50;;;;;;;;;;5062401;28;20145;-64
2021/12/02 06:58:01;;;;;;;3.88;1.60;;;1.60;99.90;;;;;;5050139;28;20060;-64
2021/12/02 07:00:28;;;;;;;4.90;1.63;;;;;;;;;;5064434;28;20037;-64
2021/12/02 07:02:54;;;;;;;8.38;1.75;;;;;;;;;;5069309;28;20425;-64
2021/12/02 07:05:21;;;;;;;5.63;1.77;;;2.70;99.90;;;;;;5070043;28;20054;-65
2021/12/02 07:07:47;;;;;;;6.28;1.92;;;2.00;99.90;;;;;;5063678;28;20093;-64
2021/12/02 07:10:17;;;;;;;7.47;1.90;;;2.10;99.90;;;;;;5058304;28;20036;-64
2021/12/02 07:12:45;;;;;;;7.97;1.98;;;;;;;;;;5070289;28;20055;-64
2021/12/02 07:15:17;;;;;;;8.95;1.80;;;2.00;99.90;;;;;;5070076;28;20396;-64
2021/12/02 07:17:45;;;;;;;7.65;1.80;;;1.90;99.90;;;;;;5049172;28;20072;-64
2021/12/02 07:20:12;;;;;;;4.07;1.60;;;1.80;99.90;;;;;;5064208;28;20040;-64
2021/12/02 07:22:38;;;;;;;4.53;1.80;;;2.40;99.90;;;;;;5069838;28;20063;-64
2021/12/02 07:25:05;;;;;;;7.00;1.77;;;1.50;99.90;;;;;;5068721;28;20082;-64
2021/12/02 07:27:31;;;;;;;5.38;1.83;;;;;;;;;;5068408;28;20139;-65
2021/12/02 07:29:57;;;;;;;6.63;1.90;;;1.80;99.90;;;;;;5069001;28;20396;-72
2021/12/02 07:32:26;;;;;;;6.93;1.80;;;2.00;99.90;;;;;;5069929;28;20056;-74
2021/12/02 07:34:55;;;;;;;4.65;1.85;;;2.00;99.90;;;;;;5070324;28;20056;-73
2021/12/02 07:37:24;;;;;;;6.80;2.05;;;2.20;99.90;;;;;;5069741;28;20062;-73
2021/12/02 07:39:50;;;;;;;5.82;1.85;;;3.10;99.90;;;;;;5068931;28;20058;-73
2021/12/02 07:42:17;;;;;;;5.75;1.80;;;2.30;99.90;;;;;;5068456;28;20075;-73
2021/12/02 07:44:43;;;;;;;13.65;2.35;;;2.10;99.90;;;;;;5069644;28;20056;-72
2021/12/02 07:47:09;;;;;;;8.13;1.88;;;2.10;99.90;;;;;;5070028;28;20111;-73
2021/12/02 07:49:37;;;;;;;4.97;1.75;;;2.20;99.90;;;;;;5069702;28;20121;-73
2021/12/02 07:52:04;;;;;;;3.55;1.75;;;2.70;99.90;;;;;;5061598;28;20403;-74
2021/12/02 07:54:32;;;;;;;3.45;1.35;;;1.40;99.90;;;;;;5051550;28;20064;-73
2021/12/02 07:56:58;;;;;;;4.72;1.60;;;;;;;;;;5070026;28;20049;-72
2021/12/02 07:59:24;;;;;;;4.95;1.60;;;2.00;99.90;;;;;;5069801;28;20448;-74
2021/12/02 08:01:51;;;;;;;3.92;1.60;;;;;;;;;;5068512;28;20121;-73
2021/12/02 08:04:18;;;;;;;3.63;1.70;;;;;;;;;;5068169;28;20040;-72
2021/12/02 08:06:47;;;;;;;3.50;1.70;;;;;;;;;;5048423;28;20048;-73
2021/12/02 08:09:14;;;;;;;5.20;1.95;;;;;;;;;;5048345;28;20106;-73
2021/12/02 08:11:40;;;;;;;6.70;1.95;;;2.30;99.90;;;;;;5047870;28;20053;-72
2021/12/02 08:14:13;;;;;;;5.28;2.25;;;;;;;;;;5049798;28;20060;-72
2021/12/02 08:16:39;;;;;;;4.50;1.80;;;;;;;;;;5049881;28;20114;-73
2021/12/02 08:19:05;;;;;;;6.55;2.00;;;;;;;;;;5050045;28;20049;-72
2021/12/02 08:21:31;;;;;;;5.90;2.20;;;2.00;99.90;;;;;;5049314;28;20299;-72
2021/12/02 08:23:57;;;;;;;4.10;2.30;;;1.30;99.90;;;;;;5048391;28;20053;-73
2021/12/02 08:26:22;;;;;;;4.50;2.25;;;2.20;99.90;;;;;;5049918;28;20064;-72
2021/12/02 08:28:49;;;;;;;3.00;2.30;;;;;;;;;;5064805;28;20378;-72
2021/12/02 08:31:15;;;;;;;6.65;2.70;;;;;;;;;;5049638;28;20049;-64
2021/12/02 08:33:42;;;;;;;4.25;2.30;;;2.10;99.90;;;;;;5064427;28;20623;-65
2021/12/02 08:36:08;;;;;;;4.28;2.50;;;3.00;99.90;;;;;;5049390;28;20061;-65
2021/12/02 08:38:35;;;;;;;7.70;2.72;;;2.70;99.90;;;;;;5049106;28;20441;-64
2021/12/02 08:41:01;;;;;;;5.85;2.90;;;;;;;;;;5049098;28;20416;-65
2021/12/02 08:43:30;;;;;;;6.60;3.13;;;1.90;99.90;;;;;;5049088;28;20568;-65
2021/12/02 08:45:56;;;;;;;4.70;3.13;;;;;;;;;;5049349;28;20064;-64
2021/12/02 08:48:22;;;;;;;7.55;2.80;;;2.80;99.90;;;;;;5049037;28;20493;-65
2021/12/02 08:50:48;;;;;;;4.90;2.70;;;2.20;99.90;;;;;;5049044;28;20046;-64
2021/12/02 08:53:14;;;;;;;4.35;2.70;;;2.80;99.90;;;;;;5048029;28;20579;-72
2021/12/02 08:55:40;;;;;;;5.50;2.45;;;2.80;99.90;;;;;;5048890;28;20535;-72
2021/12/02 08:58:08;;;;;;;4.47;3.00;;;3.10;99.90;;;;;;5049676;28;20045;-72
2021/12/02 09:00:39;;;;;;;3.17;2.65;;;3.00;99.90;;;;;;5049091;28;20063;-72
2021/12/02 09:03:08;;;;;;;6.68;2.92;;;3.00;99.90;;;;;;5049542;28;20045;-72
2021/12/02 09:05:35;;;;;;;4.25;2.75;;;3.20;99.90;;;;;;5047712;28;20134;-72
2021/12/02 09:08:05;;;;;;;7.47;3.30;;;;;;;;;;5049977;28;20401;-72
2021/12/02 09:10:31;;;;;;;5.40;2.95;;;3.30;99.90;;;;;;5049118;28;20053;-72
2021/12/02 09:12:57;;;;;;;3.45;2.53;;;2.90;99.90;;;;;;5048115;28;20045;-73
2021/12/02 09:15:24;;;;;;;5.65;2.50;;;3.40;99.90;;;;;;5030971;28;20044;-72
2021/12/02 09:17:50;;;;;;;5.45;2.40;;;3.30;99.90;;;;;;5050128;28;20115;-73
2021/12/02 09:20:17;;;;;;;3.90;2.45;;;3.20;99.90;;;;;;5035341;28;20568;-73
2021/12/02 09:22:44;;;;;;;5.72;2.50;;;3.30;99.90;;;;;;5050905;28;20171;-72
2021/12/02 09:25:11;;;;;;;3.75;2.50;;;3.10;99.90;;;;;;5052892;28;20141;-73
2021/12/02 09:27:36;;;;;;;4.78;2.65;;;4.30;99.90;;;;;;5050902;28;20143;-73
2021/12/02 09:30:04;;;;;;;5.07;2.60;;;2.70;99.90;;;;;;5051468;28;20117;-73
2021/12/02 09:32:29;;;;;;;6.18;2.70;;;3.20;99.90;;;;;;5052133;28;20057;-72
2021/12/02 09:34:55;;;;;;;4.07;2.58;;;3.20;99.90;;;;;;5052605;28;20037;-73
2021/12/02 09:37:21;;;;;;;4.20;2.60;;;3.40;99.90;;;;;;5050668;28;20068;-72
2021/12/02 09:39:47;;;;;;;5.53;3.17;;;3.90;99.90;;;;;;5053766;28;20040;-73
2021/12/02 09:42:14;;;;;;;4.03;2.50;;;3.90;99.90;;;;;;5070776;28;20044;-72
2021/12/02 09:44:44;;;;;;;6.43;3.00;;;3.40;99.90;;;;;;5070647;28;20048;-72
2021/12/02 09:47:10;;;;;;;4.65;2.50;;;3.20;99.90;;;;;;5072258;28;20045;-72
2021/12/02 09:49:36;;;;;;;4.50;2.60;;;2.70;99.90;;;;;;5072184;28;20056;-72
2021/12/02 09:52:10;;;;;;;6.18;2.90;;;2.90;99.90;;;;;;5065250;28;20459;-73
2021/12/02 09:54:41;;;;;;;3.97;2.30;;;3.40;99.90;;;;;;5058799;28;20109;-72
2021/12/02 09:57:12;;;;;;;12.18;7.03;;;3.50;99.90;;;;;;5063286;28;20535;-73
2021/12/02 10:02:13;;;;;;;4.05;2.70;;;2.80;99.90;;;;;;5050418;28;20053;-72
2021/12/02 10:04:50;;;;;;;5.63;2.80;;;3.70;99.90;;;;;;5051018;28;20198;-72
2021/12/02 10:07:45;;;;;;;5.65;3.85;;;4.10;99.90;;;;;;5057657;28;20080;-72
2021/12/02 10:10:50;;;;;;;5.43;2.67;;;3.90;99.90;;;;;;5072134;28;20044;-72
2021/12/02 10:13:14;;;;;;;7.68;3.95;;;4.20;99.90;;;;;;5071930;28;20076;-72
2021/12/02 10:15:49;;;;;;;4.60;2.05;;;3.40;99.90;;;;;;5070965;28;20493;-72
2021/12/02 10:18:17;;;;;;;5.45;2.50;;;4.90;99.90;;;;;;5072041;28;20123;-72
2021/12/02 10:20:45;;;;;;;7.03;4.00;;;3.70;99.90;;;;;;5071521;28;20056;-72
2021/12/02 10:25:54;;;;;;;5.57;2.13;;;4.20;99.90;;;;;;5052339;28;20083;-65
2021/12/02 10:28:21;;;;;;;7.82;2.10;;;4.30;99.90;;;;;;5051887;28;20670;-65
2021/12/02 10:30:52;;;;;;;4.18;2.10;;;5.30;99.90;;;;;;5051196;28;20072;-66
2021/12/02 10:33:31;;;;;;;3.55;2.20;;;4.50;99.90;;;;;;5052315;28;20056;-67
2021/12/02 10:36:03;;;;;;;5.15;2.35;;;5.40;99.90;;;;;;5050744;28;20049;-66
2021/12/02 10:38:34;;;;;;;6.75;2.05;;;3.80;99.90;;;;;;5052288;28;20090;-68
2021/12/02 10:41:02;;;;;;;3.80;2.20;;;4.50;99.90;;;;;;5050138;28;20089;-69
2021/12/02 10:43:28;;;;;;;4.75;2.20;;;;;;;;;;5073101;28;20052;-68
2021/12/02 10:46:13;;;;;;;4.10;2.05;;;4.50;99.90;;;;;;5090750;28;20055;-68
2021/12/02 10:48:50;;;;;;;6.73;2.07;;;4.20;99.90;;;;;;5092066;28;20039;-68
2021/12/02 10:51:52;;;;;;;5.38;2.05;;;4.70;99.90;;;;;;5090630;28;20059;-68
2021/12/02 10:54:22;;;;;;;5.65;2.30;;;4.70;99.90;;;;;;5090375;28;20113;-68
2021/12/02 10:56:51;;;;;;;4.00;1.98;;;4.90;99.90;;;;;;5054822;28;20512;-68
2021/12/02 10:59:44;;;;;;;6.70;1.90;;;5.30;99.90;;;;;;5051211;28;20485;-68
2021/12/02 11:02:18;;;;;;;3.78;1.70;;;4.90;99.90;;;;;;5041601;28;20056;-70
2021/12/02 11:04:46;;;;;;;3.75;1.83;;;4.30;99.90;;;;;;5068845;28;20078;-70
2021/12/02 11:07:21;;;;;;;7.05;1.90;;;5.40;99.90;;;;;;5070371;28;20467;-70
2021/12/02 11:09:48;;;;;;;11.70;2.45;;;4.60;99.90;;;;;;5068767;28;20048;-70
2021/12/02 11:12:18;;;;;;;4.40;1.70;;;5.20;99.90;;;;;;5070182;28;20775;-71
2021/12/02 11:14:54;;;;;;;3.53;1.90;;;5.40;99.90;;;;;;5068656;28;20090;-71
2021/12/02 11:17:20;;;;;;;3.75;1.50;;;5.40;99.90;;;;;;5070078;28;20055;-71
2021/12/02 11:19:49;;;;;;;3.15;1.60;;;4.70;99.90;;;;;;5070146;28;20490;-71
2021/12/02 11:22:20;;;;;;;4.07;1.70;;;4.90;99.90;;;;;;5070218;28;20183;-70
2021/12/02 11:24:48;;;;;;;5.07;1.73;;;5.20;99.90;;;;;;5068872;28;20044;-71
2021/12/02 11:27:22;;;;;;;4.60;1.90;;;4.60;99.90;;;;;;5070686;28;20056;-71
2021/12/02 11:29:55;;;;;;;4.10;1.70;;;4.40;99.90;;;;;;5068895;28;20053;-70
2021/12/02 11:32:26;;;;;;;3.40;1.85;;;4.30;99.90;;;;;;5069603;28;20056;-70
2021/12/02 11:35:01;;;;;;;4.72;1.92;;;4.20;99.90;;;;;;5071090;28;20554;-71
2021/12/02 11:37:28;;;;;;;3.78;2.00;;;4.10;99.90;;;;;;5069596;28;20074;-71
2021/12/02 11:39:55;;;;;;;6.00;1.88;;;;;;;;;;5070166;28;20048;-71
2021/12/02 11:42:25;;;;;;;3.60;1.73;;;4.00;99.90;;;;;;5070280;28;20056;-71
2021/12/02 11:44:51;;;;;;;3.55;1.30;;;4.00;99.90;;;;;;5052894;28;20151;-71
2021/12/02 11:47:17;;;;;;;1.75;1.13;;;3.80;99.90;;;;;;5070432;28;20444;-69
2021/12/02 11:49:43;;;;;;;2.67;1.23;;;;;;;;;;5070708;28;20048;-71
2021/12/02 11:52:10;;;;;;;2.05;0.98;;;3.40;99.90;;;;;;5070644;28;20052;-71
2021/12/02 11:54:36;;;;;;;4.93;1.23;;;3.80;99.90;;;;;;5070631;28;20483;-71
2021/12/02 11:57:03;;;;;;;2.33;1.10;;;4.60;99.90;;;;;;5069201;28;20117;-71
2021/12/02 11:59:29;;;;;;;3.38;1.20;;;3.70;99.90;;;;;;5068944;28;20055;-71
2021/12/02 12:01:56;;;;;;;3.30;1.20;;;3.80;99.90;;;;;;5070426;28;20044;-71
2021/12/02 12:04:22;;;;;;;1.85;1.08;;;3.70;99.90;;;;;;5070388;28;20579;-71
2021/12/02 12:07:15;;;;;;;2.75;1.00;;;3.70;99.90;;;;;;5068933;28;20063;-71
2021/12/02 12:09:41;;;;;;;5.15;1.40;;;;;;;;;;5066952;28;20051;-71
2021/12/02 12:12:07;;;;;;;4.40;0.90;;;4.30;99.90;;;;;;5068972;28;20048;-71
2021/12/02 12:14:41;;;;;;;5.70;1.20;;;3.50;99.90;;;;;;5070445;28;20044;-72
2021/12/02 12:17:08;;;;;;;7.45;1.20;;;3.50;99.90;;;;;;5070651;28;20033;-71
2021/12/02 12:19:41;;;;;;;4.43;1.23;;;3.60;99.90;;;;;;5069454;28;20045;-72
2021/12/02 12:22:22;;;;;;;5.30;1.50;;;3.50;99.90;;;;;;5070592;28;20048;-72
2021/12/02 12:24:53;;;;;;;5.22;1.75;;;3.70;99.90;;;;;;5070515;28;20040;-72
2021/12/02 12:27:39;;;;;;;4.85;1.45;;;2.80;99.90;;;;;;5070529;28;20079;-72
2021/12/02 12:30:09;;;;;;;6.82;1.65;;;3.00;99.90;;;;;;5071002;28;20098;-71
2021/12/02 12:35:21;;;;;;;5.45;1.40;;;3.50;99.90;;;;;;5069616;28;20056;-72
2021/12/02 12:37:49;;;;;;;2.97;0.98;;;3.40;99.90;;;;;;5069525;28;20063;-71
2021/12/02 12:40:25;;;;;;;4.32;1.17;;;3.80;99.90;;;;;;5070559;28;20115;-70
2021/12/02 12:42:57;;;;;;;4.00;1.13;;;3.40;99.90;;;;;;5070481;28;20048;-71
2021/12/02 12:45:27;;;;;;;4.25;1.10;;;3.40;99.90;;;;;;5070146;28;20076;-72
2021/12/02 12:47:59;;;;;;;2.45;1.02;;;3.40;99.90;;;;;;5069021;28;20045;-72
2021/12/02 12:50:31;;;;;;;2.72;1.00;;;3.30;99.90;;;;;;5070147;28;20044;-72
2021/12/02 12:53:13;;;;;;;2.67;1.00;;;3.40;99.90;;;;;;5072468;28;20048;-72
2021/12/02 12:56:03;;;;;;;3.10;0.98;;;3.40;99.90;;;;;;5072615;28;20048;-72
2021/12/02 12:58:32;;;;;;;3.60;1.05;;;4.00;99.90;;;;;;5073534;28;20059;-72
2021/12/02 13:01:05;;;;;;;2.78;0.80;;;2.30;99.90;;;;;;5074123;28;20131;-70
2021/12/02 13:03:46;;;;;;;1.08;0.85;;;3.20;99.90;;;;;;5072262;28;20140;-69
2021/12/02 13:06:25;;;;;;;1.10;1.00;;;3.40;99.90;;;;;;5072284;28;20045;-70
2021/12/02 13:08:55;;;;;;;1.35;1.00;;;3.70;99.90;;;;;;5072651;28;20684;-72
2021/12/02 13:11:24;;;;;;;1.75;1.13;;;2.90;99.90;;;;;;5072369;28;20040;-69
2021/12/02 13:13:52;;;;;;;3.20;1.60;;;3.20;99.90;;;;;;5074211;28;20047;-69
2021/12/02 13:16:19;;;;;;;3.60;1.80;;;3.10;99.90;;;;;;5072925;28;20045;-69
2021/12/02 13:19:14;;;;;;;3.22;2.20;;;3.50;99.90;;;;;;5073885;28;20048;-69
2021/12/02 13:21:45;;;;;;;3.67;2.75;;;2.50;99.90;;;;;;5073696;28;20040;-69
2021/12/02 13:24:16;;;;;;;5.95;3.25;;;3.20;99.90;;;;;;5073855;28;20087;-69
2021/12/02 13:26:46;;;;;;;5.78;3.72;;;3.00;99.90;;;;;;5073477;28;20111;-69
2021/12/02 13:29:23;;;;;;;5.88;3.90;;;3.00;99.90;;;;;;5065820;28;20120;-69
2021/12/02 13:32:02;;;;;;;4.90;3.90;;;3.20;99.90;;;;;;5057944;28;20044;-69
2021/12/02 13:34:29;;;;;;;4.50;3.55;;;2.90;99.90;;;;;;5058858;28;20080;-69
2021/12/02 13:37:07;;;;;;;5.70;3.70;;;3.00;99.90;;;;;;5070609;28;20052;-70
2021/12/02 13:39:39;;;;;;;5.15;4.03;;;2.60;99.90;;;;;;5069629;28;20044;-70
2021/12/02 13:42:08;;;;;;;5.53;4.00;;;2.90;99.90;;;;;;5069285;28;20568;-69